Pride Of Burgundy — MQSQ9 — position and weather

sailwx.info

Track history (hours):
 
Tides and Currents Weather Stations Pressure Air Temp Water Temp Dewpoint Dewpoint Depression Visibility Wind Speed Wind Dir Waves Ship Positions

Pride Of Burgundy

Operator: P & O Ferries

Last reported at 2018-Feb-22 10:30 UTC. Time now 2018-Feb-22 10:41 UTC.
Position N 51°07' E 001°20'.

Length 180 m; draft 6.2 m.

Type: Passenger vessel. MMSI: 232001470.

Date/timePositionNaut miles runAvg speedWind from/ knotsBaromVisibWave heightAir tempDewpointWater temp
2018-Feb-22 10:30N 51°07' E 001°20'2 3.3
2018-Feb-22 10:00N 51°07' E 001°23'1020.1
2018-Feb-22 09:30N 51°03' E 001°37'918.0
2018-Feb-22 09:00N 50°58' E 001°50'1 1.9
2018-Feb-22 08:30N 50°58' E 001°51'0 0.0
2018-Feb-22 08:00N 50°58' E 001°51'5 9.9
2018-Feb-22 07:30N 50°58' E 001°43'918.7
2018-Feb-22 07:00N 51°03' E 001°30'815.8
2018-Feb-22 06:30N 51°07' E 001°20'0 0.0
2018-Feb-22 06:00N 51°07' E 001°20'0 0.0
2018-Feb-22 05:30N 51°07' E 001°20'2 4.8
2018-Feb-22 05:00N 51°07' E 001°24'816.9
2018-Feb-22 04:30N 51°02' E 001°35'917.4
2018-Feb-22 04:00N 50°58' E 001°47'2 4.6
2018-Feb-22 03:30N 50°58' E 001°51'0 0.0
2018-Feb-22 03:01N 50°58' E 001°51'0 0.0
2018-Feb-22 02:30N 50°58' E 001°51'713.5
2018-Feb-22 02:00N 50°58' E 001°40'917.1
2018-Feb-22 01:30N 51°02' E 001°29'814.7
2018-Feb-22 01:00N 51°07' E 001°20'0 0.0
2018-Feb-22 00:30N 51°07' E 001°20'0 0.2
2018-Feb-22 00:00N 51°07' E 001°20'714.6
2018-Feb-21 23:31N 51°04' E 001°30'918.7
2018-Feb-21 23:01N 50°59' E 001°43'510.8
2018-Feb-21 22:30N 50°58' E 001°51'0 0.0
2018-Feb-21 22:00N 50°58' E 001°51'3 6.1
2018-Feb-21 21:30N 50°58' E 001°46'816.4
2018-Feb-21 21:00N 51°01' E 001°35'1018.9
2018-Feb-21 20:30N 51°07' E 001°22'1 2.5
2018-Feb-21 20:00N 51°07' E 001°20'0 0.0
2018-Feb-21 19:30N 51°07' E 001°20'713.6
2018-Feb-21 19:00N 51°04' E 001°30'1019.8
2018-Feb-21 18:30N 50°59' E 001°43'510.5
2018-Feb-21 17:59N 50°58' E 001°52'0 0.0
2018-Feb-21 17:30N 50°58' E 001°52'0 0.0
2018-Feb-21 17:00N 50°58' E 001°52'815.6
2018-Feb-21 16:30N 50°58' E 001°39'1019.6
2018-Feb-21 16:00N 51°04' E 001°27'5 9.7
2018-Feb-21 15:27N 51°07' E 001°20'0 0.0
2018-Feb-21 15:00N 51°07' E 001°20'3 6.1
2018-Feb-21 14:30N 51°07' E 001°25'1019.6
2018-Feb-21 14:00N 51°01' E 001°38'816.9
2018-Feb-21 13:30N 50°58' E 001°50'0 0.9
2018-Feb-21 13:00N 50°58' E 001°51'0 0.0
2018-Feb-21 12:31N 50°58' E 001°51'611.5
2018-Feb-21 12:01N 50°58' E 001°42'918.3
2018-Feb-21 11:31N 51°03' E 001°30'814.3
2018-Feb-21 10:59N 51°07' E 001°20'1632.9
2018-Feb-21 10:30N 50°60' E 001°42'1424.4
2018-Feb-21 09:55N 51°07' E 001°22'820.4
2018-Feb-21 09:30N 51°04' E 001°34'1019.7
2018-Feb-21 09:00N 50°58' E 001°47'3 5.1
2018-Feb-21 08:30N 50°58' E 001°51'0 0.0
2018-Feb-21 08:00N 50°58' E 001°51'510.3
2018-Feb-21 07:31N 50°58' E 001°43'918.7
2018-Feb-21 07:00N 51°02' E 001°29'7 3.5
2018-Feb-21 05:05N 51°07' E 001°22'1 8.5
2018-Feb-21 05:00N 51°07' E 001°23'816.4
2018-Feb-21 04:30N 51°02' E 001°34'816.1
2018-Feb-21 04:01N 50°58' E 001°45'4 7.4
2018-Feb-21 03:30N 50°58' E 001°51'0 0.0
2018-Feb-21 03:00N 50°58' E 001°51'0 0.0
2018-Feb-21 02:30N 50°58' E 001°51'611.9
2018-Feb-21 02:00N 50°59' E 001°42'1019.3
2018-Feb-21 01:30N 51°03' E 001°28'7 7.9
2018-Feb-21 00:40N 51°07' E 001°20'0 0.0
2018-Feb-21 00:30N 51°07' E 001°20'0 0.3
2018-Feb-20 23:59N 51°07' E 001°20'815.9
2018-Feb-20 23:30N 51°04' E 001°31'918.5
2018-Feb-20 23:00N 50°59' E 001°43'5 9.9
2018-Feb-20 22:30N 50°58' E 001°51'0 0.0
2018-Feb-20 22:01N 50°58' E 001°51'1 2.7
2018-Feb-20 21:30N 50°58' E 001°49'916.8
2018-Feb-20 20:57N 50°57' E 001°34'818.8
2018-Feb-20 20:30N 51°04' E 001°26'510.4
2018-Feb-20 20:00N 51°07' E 001°20'0 0.0
2018-Feb-20 19:28N 51°07' E 001°20'1 2.6
2018-Feb-20 19:00N 51°07' E 001°22'917.4
2018-Feb-20 18:31N 51°03' E 001°34'917.3
2018-Feb-20 18:01N 50°58' E 001°45'4 7.1
2018-Feb-20 17:30N 50°58' E 001°51'0 0.0
2018-Feb-20 17:00N 50°58' E 001°51'4 8.8
2018-Feb-20 16:30N 50°58' E 001°44'918.3
2018-Feb-20 16:01N 51°02' E 001°31'915.2
2018-Feb-20 15:26N 51°07' E 001°20'0 0.0
2018-Feb-20 15:00N 51°07' E 001°20'1 2.1
2018-Feb-20 14:30N 51°07' E 001°22'918.3
2018-Feb-20 14:00N 51°03' E 001°35'918.0
2018-Feb-20 13:30N 50°58' E 001°47'3 5.5
2018-Feb-20 13:00N 50°58' E 001°51'0 0.0
2018-Feb-20 12:30N 50°58' E 001°51'4 8.9
2018-Feb-20 12:01N 50°58' E 001°44'1019.8
2018-Feb-20 11:30N 51°03' E 001°30'815.2
2018-Feb-20 11:00N 51°07' E 001°20'0 0.0
2018-Feb-20 10:30N 51°07' E 001°20'1 1.9
2018-Feb-20 10:00N 51°07' E 001°22'918.7
2018-Feb-20 09:30N 51°04' E 001°36'918.6
2018-Feb-20 09:00N 50°58' E 001°47'3 5.4
2018-Feb-20 08:30N 50°58' E 001°51'0 0.0
2018-Feb-20 08:00N 50°58' E 001°51'5 9.1
2018-Feb-20 07:30N 50°58' E 001°44'919.0
2018-Feb-20 07:01N 51°03' E 001°31'815.7
2018-Feb-20 06:29N 51°07' E 001°20'0 0.0
2018-Feb-20 05:59N 51°07' E 001°20'0 0.0
2018-Feb-20 05:30N 51°07' E 001°20'510.9
2018-Feb-20 05:00N 51°05' E 001°28'816.7
2018-Feb-20 04:31N 51°01' E 001°39'714.0
2018-Feb-20 04:01N 50°58' E 001°49'1 2.7
2018-Feb-20 03:30N 50°58' E 001°51'0 0.0
2018-Feb-20 03:00N 50°58' E 001°51'0 0.0
2018-Feb-20 02:30N 50°58' E 001°51'2 4.1
2018-Feb-20 02:00N 50°58' E 001°48'1020.0
2018-Feb-20 01:31N 50°60' E 001°33'1019.7
2018-Feb-20 01:00N 51°06' E 001°20'1 2.0
2018-Feb-20 00:30N 51°07' E 001°20'0 0.3
2018-Feb-20 00:00N 51°07' E 001°20'815.5
2018-Feb-19 23:30N 51°03' E 001°31'816.2
2018-Feb-19 23:00N 50°59' E 001°42'611.9
2018-Feb-19 22:30N 50°58' E 001°51'0 0.0
2018-Feb-19 22:01N 50°58' E 001°51'1 2.8
2018-Feb-19 21:31N 50°58' E 001°49'816.9
2018-Feb-19 21:00N 50°60' E 001°36'1019.5
2018-Feb-19 20:30N 51°06' E 001°23'3 4.6
2018-Feb-19 19:58N 51°07' E 001°20'0 0.0
2018-Feb-19 19:31N 51°07' E 001°20'3 6.5
2018-Feb-19 19:00N 51°06' E 001°25'917.5
2018-Feb-19 18:30N 51°02' E 001°37'917.7
2018-Feb-19 18:00N 50°58' E 001°50'1 1.7
2018-Feb-19 17:30N 50°58' E 001°51'0 0.0
2018-Feb-19 17:00N 50°58' E 001°51'510.4
2018-Feb-19 16:30N 50°58' E 001°43'1020.0
2018-Feb-19 16:00N 51°03' E 001°29'714.0
2018-Feb-19 15:30N 51°07' E 001°20'0 0.0
2018-Feb-19 15:00N 51°07' E 001°20'2 3.8
2018-Feb-19 14:31N 51°07' E 001°23'918.6
2018-Feb-19 14:01N 51°02' E 001°35'917.3
2018-Feb-19 13:30N 50°58' E 001°48'2 3.9
2018-Feb-19 13:00N 50°58' E 001°51'0 0.0
2018-Feb-19 12:30N 50°58' E 001°51'5 9.6
2018-Feb-19 12:00N 50°58' E 001°43'1019.5
2018-Feb-19 11:30N 51°02' E 001°29'816.1
2018-Feb-19 11:00N 51°07' E 001°20'0 0.0
2018-Feb-19 10:30N 51°07' E 001°20'1 1.5
2018-Feb-19 10:01N 51°07' E 001°21'1020.0
2018-Feb-19 09:31N 51°02' E 001°35'1019.3
2018-Feb-19 09:00N 50°58' E 001°49'1 2.4
2018-Feb-19 08:30N 50°58' E 001°51'0 0.0
2018-Feb-19 08:00N 50°58' E 001°51'5 9.1
2018-Feb-19 07:30N 50°58' E 001°44'918.7
2018-Feb-19 07:01N 51°03' E 001°31'816.5
2018-Feb-19 06:30N 51°07' E 001°20'0 0.0
2018-Feb-19 06:00N 51°07' E 001°20'0 0.0
2018-Feb-19 05:28N 51°07' E 001°20'1 2.7
2018-Feb-19 05:00N 51°07' E 001°22'817.0
2018-Feb-19 04:30N 51°03' E 001°34'917.4
2018-Feb-19 04:00N 50°58' E 001°45'4 7.4
2018-Feb-19 03:30N 50°58' E 001°51'0 0.0
2018-Feb-19 03:00N 50°58' E 001°51'0 0.0
2018-Feb-19 02:30N 50°58' E 001°51'714.6
2018-Feb-19 02:00N 50°58' E 001°39'917.7
2018-Feb-19 01:30N 51°04' E 001°28'612.5
2018-Feb-19 01:00N 51°07' E 001°20'0 0.0
2018-Feb-19 00:30N 51°07' E 001°20'611.5
2018-Feb-19 00:00N 51°06' E 001°29'1020.4
2018-Feb-18 23:30N 50°60' E 001°42'612.5
2018-Feb-18 23:00N 50°58' E 001°52'0 0.0
2018-Feb-18 22:30N 50°58' E 001°52'0 0.0
2018-Feb-18 22:00N 50°58' E 001°52'2 3.3
2018-Feb-18 21:30N 50°58' E 001°49'815.1
2018-Feb-18 21:01N 50°59' E 001°37'1019.0
2018-Feb-18 20:31N 51°04' E 001°24'4 8.0
2018-Feb-18 20:00N 51°07' E 001°20'0 0.0
2018-Feb-18 19:30N 51°07' E 001°20'2 3.3
2018-Feb-18 19:00N 51°07' E 001°23'815.3
2018-Feb-18 18:30N 51°04' E 001°33'1019.2
2018-Feb-18 18:00N 50°58' E 001°46'3 6.4
2018-Feb-18 17:30N 50°58' E 001°51'0 0.0
2018-Feb-18 17:00N 50°58' E 001°51'5 9.2
2018-Feb-18 16:31N 50°58' E 001°44'1020.5
2018-Feb-18 16:00N 51°04' E 001°30'714.6
2018-Feb-18 15:30N 51°07' E 001°20'0 0.0
2018-Feb-18 14:59N 51°07' E 001°20'3 7.2
2018-Feb-18 14:31N 51°07' E 001°26'816.0
2018-Feb-18 14:01N 51°03' E 001°37'816.0
2018-Feb-18 13:31N 50°58' E 001°47'3 5.2
2018-Feb-18 13:00N 50°58' E 001°51'0 0.0
2018-Feb-18 12:30N 50°58' E 001°51'611.3
2018-Feb-18 12:00N 50°58' E 001°42'918.5
2018-Feb-18 11:30N 51°03' E 001°30'714.7
2018-Feb-18 11:00N 51°07' E 001°20'0 0.0
2018-Feb-18 10:30N 51°07' E 001°20'2 3.3
2018-Feb-18 10:00N 51°07' E 001°23'1020.6
2018-Feb-18 09:30N 51°02' E 001°37'918.8
2018-Feb-18 09:00N 50°58' E 001°51'0 0.6
2018-Feb-18 08:30N 50°58' E 001°51'0 0.1
2018-Feb-18 07:59N 50°58' E 001°51'714.4
2018-Feb-18 07:31N 50°59' E 001°40'1019.4
2018-Feb-18 07:01N 51°03' E 001°26'611.0
2018-Feb-18 06:30N 51°07' E 001°20'0 0.0
2018-Feb-18 06:00N 51°07' E 001°20'0 0.0
2018-Feb-18 05:30N 51°07' E 001°20'1 1.0
2018-Feb-18 05:00N 51°07' E 001°21'816.7
2018-Feb-18 04:30N 51°03' E 001°32'815.4
2018-Feb-18 04:00N 50°59' E 001°42'611.1
2018-Feb-18 03:30N 50°58' E 001°51'0 0.0
2018-Feb-18 03:00N 50°58' E 001°51'0 0.0
2018-Feb-18 02:30N 50°58' E 001°51'4 8.6
2018-Feb-18 02:00N 50°58' E 001°44'816.6
2018-Feb-18 01:31N 51°02' E 001°33'815.8
2018-Feb-18 01:01N 51°07' E 001°22'2 3.3
2018-Feb-18 00:30N 51°07' E 001°20'1 1.1
2018-Feb-18 00:00N 51°07' E 001°21'815.1
2018-Feb-17 23:30N 51°04' E 001°31'816.0
2018-Feb-17 23:00N 50°59' E 001°42'611.6
2018-Feb-17 22:31N 50°58' E 001°51'0 0.0
2018-Feb-17 22:00N 50°58' E 001°51'1 2.2
2018-Feb-17 21:30N 50°58' E 001°49'815.4
2018-Feb-17 21:00N 50°60' E 001°37'815.1
2018-Feb-17 20:30N 51°04' E 001°27'611.3
2018-Feb-17 20:00N 51°07' E 001°20'0 0.0
2018-Feb-17 19:29N 51°07' E 001°20'3 6.3
2018-Feb-17 19:01N 51°07' E 001°25'917.4
2018-Feb-17 18:31N 51°02' E 001°36'816.1
2018-Feb-17 18:01N 50°58' E 001°47'2 4.4
2018-Feb-17 17:30N 50°58' E 001°51'0 0.0
2018-Feb-17 17:00N 50°58' E 001°51'613.1
2018-Feb-17 16:31N 50°58' E 001°41'1020.3
2018-Feb-17 16:00N 51°04' E 001°28'611.2
2018-Feb-17 15:30N 51°07' E 001°20'0 0.0
2018-Feb-17 15:00N 51°07' E 001°20'5 9.2
2018-Feb-17 14:30N 51°06' E 001°27'1019.1
2018-Feb-17 14:01N 51°01' E 001°39'815.2
2018-Feb-17 13:30N 50°58' E 001°51'0 0.4
2018-Feb-17 13:00N 50°58' E 001°51'0 0.3
2018-Feb-17 12:30N 50°58' E 001°51'918.1
2018-Feb-17 12:01N 50°60' E 001°37'1020.0
2018-Feb-17 11:30N 51°06' E 001°24'3 5.5
2018-Feb-17 10:59N 51°07' E 001°20'0 0.2
2018-Feb-17 10:28N 51°07' E 001°20'714.5
2018-Feb-17 10:01N 51°07' E 001°31'714.7
2018-Feb-17 09:30N 51°02' E 001°38'816.5
2018-Feb-17 09:01N 50°58' E 001°50'1 1.0
2018-Feb-17 08:30N 50°58' E 001°51'0 0.0
2018-Feb-17 08:00N 50°58' E 001°51'612.4
2018-Feb-17 07:30N 50°59' E 001°41'917.5
2018-Feb-17 07:00N 51°03' E 001°29'713.6
2018-Feb-17 06:29N 51°07' E 001°20'0 0.0
2018-Feb-17 06:01N 51°07' E 001°20'0 0.0
2018-Feb-17 05:30N 51°07' E 001°20'4 8.2
2018-Feb-17 05:01N 51°06' E 001°26'816.1
2018-Feb-17 04:30N 51°01' E 001°36'815.7
2018-Feb-17 04:00N 50°58' E 001°48'2 4.2
2018-Feb-17 03:30N 50°58' E 001°51'0 0.0
2018-Feb-17 03:00N 50°58' E 001°51'0 0.0
2018-Feb-17 02:31N 50°58' E 001°51'714.6
2018-Feb-17 02:00N 50°59' E 001°40'815.5
2018-Feb-17 01:30N 51°04' E 001°30'713.7
2018-Feb-17 01:00N 51°07' E 001°20'0 0.0
2018-Feb-17 00:29N 51°07' E 001°20'0 0.2
2018-Feb-16 23:59N 51°07' E 001°20'613.5
2018-Feb-16 23:31N 51°05' E 001°30'1020.1
2018-Feb-16 23:00N 50°59' E 001°43'510.5
2018-Feb-16 22:30N 50°58' E 001°51'0 0.0
2018-Feb-16 22:01N 50°58' E 001°51'1 2.4
2018-Feb-16 21:31N 50°58' E 001°49'917.2
2018-Feb-16 21:00N 51°00' E 001°36'918.2
2018-Feb-16 20:30N 51°06' E 001°24'3 6.1
2018-Feb-16 20:00N 51°07' E 001°20'0 0.0
2018-Feb-16 19:30N 51°07' E 001°20'2 4.3
2018-Feb-16 19:01N 51°07' E 001°23'1019.5
2018-Feb-16 18:31N 51°02' E 001°36'918.7
2018-Feb-16 18:00N 50°58' E 001°50'1 1.1
2018-Feb-16 17:31N 50°58' E 001°51'0 0.0
2018-Feb-16 17:00N 50°58' E 001°51'511.0
2018-Feb-16 16:31N 50°58' E 001°42'1019.8
2018-Feb-16 16:01N 51°03' E 001°29'712.8
2018-Feb-16 15:29N 51°07' E 001°20'0 0.0
2018-Feb-16 15:00N 51°07' E 001°20'0 0.2
2018-Feb-16 14:30N 51°07' E 001°20'917.6
2018-Feb-16 14:01N 51°04' E 001°33'1019.2
2018-Feb-16 13:31N 50°58' E 001°45'4 7.2
2018-Feb-16 13:00N 50°58' E 001°51'0 0.0
2018-Feb-16 12:30N 50°58' E 001°51'510.2
2018-Feb-16 12:00N 50°58' E 001°43'1020.6
2018-Feb-16 11:30N 51°03' E 001°29'713.5
2018-Feb-16 11:00N 51°07' E 001°20'0 0.0
2018-Feb-16 10:30N 51°07' E 001°20'1 2.4
2018-Feb-16 09:59N 51°07' E 001°22'817.1
2018-Feb-16 09:31N 51°03' E 001°33'1019.5
2018-Feb-16 09:01N 50°58' E 001°46'3 5.7
2018-Feb-16 08:30N 50°58' E 001°51'0 0.0
2018-Feb-16 08:00N 50°58' E 001°51'4 8.1
2018-Feb-16 07:30N 50°58' E 001°45'918.4
2018-Feb-16 07:01N 51°02' E 001°32'917.1
2018-Feb-16 06:29N 51°07' E 001°20'0 0.0
2018-Feb-16 05:58N 51°07' E 001°20'0 0.0
2018-Feb-16 05:30N 51°07' E 001°20'4 7.3
2018-Feb-16 05:00N 51°07' E 001°26'714.3
2018-Feb-16 04:30N 51°03' E 001°35'815.5
2018-Feb-16 04:01N 50°58' E 001°45'4 7.6
2018-Feb-16 03:30N 50°58' E 001°51'0 0.0
2018-Feb-16 03:01N 50°58' E 001°51'713.8
2018-Feb-16 02:30N 50°59' E 001°40'1020.8
2018-Feb-16 02:00N 51°05' E 001°26'5 9.1
2018-Feb-16 01:30N 51°07' E 001°20'0 0.2
2018-Feb-16 00:58N 51°07' E 001°20'714.7
2018-Feb-16 00:31N 51°06' E 001°31'918.5
2018-Feb-16 00:01N 51°01' E 001°43'612.1
2018-Feb-15 23:30N 50°58' E 001°52'0 0.0
2018-Feb-15 23:00N 50°58' E 001°52'0 0.0
2018-Feb-15 22:30N 50°58' E 001°52'0 0.0
2018-Feb-15 22:00N 50°58' E 001°52'1 2.2
2018-Feb-15 21:30N 50°58' E 001°50'918.3
2018-Feb-15 21:01N 50°60' E 001°36'918.8
2018-Feb-15 20:31N 51°05' E 001°23'3 6.0
2018-Feb-15 20:00N 51°07' E 001°20'0 0.0
2018-Feb-15 19:30N 51°07' E 001°20'713.6
2018-Feb-15 19:01N 51°04' E 001°30'1019.9
2018-Feb-15 18:30N 50°59' E 001°43'611.3
2018-Feb-15 18:00N 50°58' E 001°52'0 0.0
2018-Feb-15 17:30N 50°58' E 001°52'0 0.3
2018-Feb-15 17:00N 50°58' E 001°51'815.2
2018-Feb-15 16:30N 50°58' E 001°39'1019.5
2018-Feb-15 16:00N 51°04' E 001°27'610.9
2018-Feb-15 15:30N 51°07' E 001°20'0 0.0
2018-Feb-15 14:59N 51°07' E 001°20'2 4.6
2018-Feb-15 14:30N 51°07' E 001°23'917.9
2018-Feb-15 14:00N 51°03' E 001°36'917.9
2018-Feb-15 13:30N 50°58' E 001°48'2 3.5
2018-Feb-15 13:00N 50°58' E 001°51'0 0.0
2018-Feb-15 12:30N 50°58' E 001°51'611.0
2018-Feb-15 12:01N 50°58' E 001°42'1019.8
2018-Feb-15 11:30N 51°02' E 001°28'714.5
2018-Feb-15 11:00N 51°07' E 001°20'0 0.0
2018-Feb-15 10:30N 51°07' E 001°20'3 5.7
2018-Feb-15 10:01N 51°07' E 001°24'918.9
2018-Feb-15 09:30N 51°02' E 001°38'817.0
2018-Feb-15 09:00N 50°58' E 001°50'1 1.8
2018-Feb-15 08:30N 50°58' E 001°51'0 0.1
2018-Feb-15 08:00N 50°58' E 001°51'816.4
2018-Feb-15 07:30N 50°59' E 001°38'1019.5
2018-Feb-15 07:00N 51°04' E 001°25'5 7.5
2018-Feb-15 06:24N 51°07' E 001°20'0 0.0
2018-Feb-15 06:00N 51°07' E 001°20'0 0.9
2018-Feb-15 05:30N 51°07' E 001°21'5 9.8
2018-Feb-15 05:01N 51°07' E 001°28'815.6
2018-Feb-15 04:30N 51°01' E 001°38'816.4
2018-Feb-15 04:01N 50°58' E 001°50'1 1.7
2018-Feb-15 03:30N 50°58' E 001°51'0 0.0
2018-Feb-15 03:01N 50°58' E 001°51'0 0.3
2018-Feb-15 02:30N 50°58' E 001°51'918.1
2018-Feb-15 02:01N 51°00' E 001°37'1019.1
2018-Feb-15 01:30N 51°06' E 001°24'3 6.3
2018-Feb-15 01:00N 51°07' E 001°20'0 0.0
2018-Feb-15 00:30N 51°07' E 001°20'5 9.2
2018-Feb-15 00:00N 51°07' E 001°27'917.3
2018-Feb-14 23:30N 51°02' E 001°39'816.3
2018-Feb-14 23:00N 50°58' E 001°50'1 1.1
2018-Feb-14 22:30N 50°58' E 001°51'0 0.0
2018-Feb-14 22:01N 50°58' E 001°51'612.0
2018-Feb-14 21:30N 50°58' E 001°41'918.0
2018-Feb-14 21:00N 51°02' E 001°29'815.0
2018-Feb-14 20:30N 51°07' E 001°20'0 0.0
2018-Feb-14 20:00N 51°07' E 001°20'0 0.0
2018-Feb-14 19:30N 51°07' E 001°20'612.4
2018-Feb-14 19:01N 51°05' E 001°29'1020.3
2018-Feb-14 18:30N 50°59' E 001°42'611.1
2018-Feb-14 18:01N 50°58' E 001°51'0 0.0
2018-Feb-14 17:31N 50°58' E 001°51'1 1.5
2018-Feb-14 17:01N 50°58' E 001°50'917.1
2018-Feb-14 16:30N 50°59' E 001°36'918.3
2018-Feb-14 16:00N 51°05' E 001°25'4 7.3
2018-Feb-14 15:29N 51°07' E 001°20'0 0.0
2018-Feb-14 14:59N 51°07' E 001°20'2 3.5
2018-Feb-14 14:30N 51°07' E 001°23'1019.1
2018-Feb-14 14:00N 51°02' E 001°36'918.3
2018-Feb-14 13:31N 50°58' E 001°49'1 2.6
2018-Feb-14 13:00N 50°58' E 001°51'0 0.0
2018-Feb-14 12:30N 50°58' E 001°51'612.8
2018-Feb-14 12:00N 50°59' E 001°41'1019.1
2018-Feb-14 11:30N 51°04' E 001°28'611.7
2018-Feb-14 10:59N 51°07' E 001°20'0 0.0
2018-Feb-14 10:30N 51°07' E 001°20'1 1.4
2018-Feb-14 10:00N 51°07' E 001°21'918.9
2018-Feb-14 09:30N 51°02' E 001°34'918.6
2018-Feb-14 09:00N 50°58' E 001°47'3 5.1
2018-Feb-14 08:30N 50°58' E 001°51'0 0.0
2018-Feb-14 08:00N 50°58' E 001°51'611.4
2018-Feb-14 07:30N 50°58' E 001°42'918.8
2018-Feb-14 07:00N 51°04' E 001°29'713.8
2018-Feb-14 06:30N 51°07' E 001°20'0 0.0
2018-Feb-14 06:01N 51°07' E 001°20'0 0.0
2018-Feb-14 05:30N 51°07' E 001°20'4 8.5
2018-Feb-14 05:00N 51°06' E 001°26'816.4
2018-Feb-14 04:30N 51°02' E 001°38'815.2
2018-Feb-14 04:01N 50°58' E 001°48'2 3.3
2018-Feb-14 03:30N 50°58' E 001°51'0 0.0
2018-Feb-14 03:00N 50°58' E 001°51'611.3
2018-Feb-14 02:30N 50°58' E 001°42'1019.3
2018-Feb-14 02:00N 51°03' E 001°29'713.7
2018-Feb-14 01:29N 51°07' E 001°20'0 0.0
2018-Feb-14 01:00N 51°07' E 001°20'2 4.9
2018-Feb-14 00:30N 51°07' E 001°24'1019.2
2018-Feb-14 00:00N 51°02' E 001°37'917.7
2018-Feb-13 23:31N 50°58' E 001°50'1 1.6
2018-Feb-13 23:00N 50°58' E 001°51'0 0.1
2018-Feb-13 22:30N 50°58' E 001°51'816.1
2018-Feb-13 22:01N 50°60' E 001°39'918.5
2018-Feb-13 21:30N 51°05' E 001°26'5 9.0
2018-Feb-13 21:00N 51°07' E 001°20'0 0.0
2018-Feb-13 20:30N 51°07' E 001°20'2 3.3
2018-Feb-13 20:00N 51°07' E 001°23'1019.5
2018-Feb-13 19:31N 51°02' E 001°36'918.7
2018-Feb-13 19:00N 50°58' E 001°50'1 1.9
2018-Feb-13 18:30N 50°58' E 001°51'0 0.0
2018-Feb-13 18:00N 50°58' E 001°51'510.1
2018-Feb-13 17:31N 50°58' E 001°43'917.8
2018-Feb-13 17:00N 51°02' E 001°30'816.7
2018-Feb-13 16:30N 51°07' E 001°20'0 0.4
2018-Feb-13 16:00N 51°07' E 001°20'0 0.0
2018-Feb-13 15:29N 51°07' E 001°20'510.7
2018-Feb-13 15:00N 51°06' E 001°28'1019.2
2018-Feb-13 14:30N 51°00' E 001°40'714.8
2018-Feb-13 14:00N 50°58' E 001°51'0 0.1
2018-Feb-13 13:30N 50°58' E 001°51'0 0.1
2018-Feb-13 13:00N 50°58' E 001°51'816.1
2018-Feb-13 12:30N 50°58' E 001°38'918.0
2018-Feb-13 12:00N 51°04' E 001°27'611.0
2018-Feb-13 11:30N 51°07' E 001°20'0 0.0
2018-Feb-13 11:00N 51°07' E 001°20'0 0.0
2018-Feb-13 10:30N 51°07' E 001°20'4 8.5
2018-Feb-13 10:00N 51°07' E 001°27'917.2
2018-Feb-13 09:31N 51°03' E 001°39'815.9
2018-Feb-13 09:00N 50°58' E 001°50'1 2.0
2018-Feb-13 08:30N 50°58' E 001°51'0 0.0
2018-Feb-13 08:00N 50°58' E 001°51'611.0
2018-Feb-13 07:31N 50°58' E 001°42'918.4
2018-Feb-13 07:00N 51°04' E 001°30'714.6
2018-Feb-13 06:30N 51°07' E 001°20'0 0.0
2018-Feb-13 06:00N 51°07' E 001°20'0 0.0
2018-Feb-13 05:29N 51°07' E 001°20'2 4.7
2018-Feb-13 05:00N 51°07' E 001°23'917.0
2018-Feb-13 04:30N 51°03' E 001°36'917.2
2018-Feb-13 04:00N 50°58' E 001°47'3 5.4
2018-Feb-13 03:31N 50°58' E 001°51'0 0.0
2018-Feb-13 03:00N 50°58' E 001°51'0 0.0
2018-Feb-13 02:30N 50°58' E 001°51'4 8.8
2018-Feb-13 02:00N 50°58' E 001°44'917.7
2018-Feb-13 01:30N 51°02' E 001°32'917.6
2018-Feb-13 01:00N 51°07' E 001°20'0 0.4
2018-Feb-13 00:30N 51°07' E 001°20'0 0.6
2018-Feb-13 00:00N 51°07' E 001°21'918.0
2018-Feb-12 23:30N 51°04' E 001°34'918.9
2018-Feb-12 23:00N 50°58' E 001°46'3 6.6
2018-Feb-12 22:30N 50°58' E 001°51'0 0.0
2018-Feb-12 22:00N 50°58' E 001°51'5 9.1
2018-Feb-12 21:31N 50°58' E 001°44'1020.0
2018-Feb-12 21:01N 51°03' E 001°30'815.0
2018-Feb-12 20:30N 51°07' E 001°20'0 0.0
2018-Feb-12 20:00N 51°07' E 001°20'2 3.1
2018-Feb-12 19:30N 51°07' E 001°22'919.1
2018-Feb-12 19:00N 51°02' E 001°35'918.7
2018-Feb-12 18:30N 50°58' E 001°49'1 2.6
2018-Feb-12 18:00N 50°58' E 001°51'0 0.0
2018-Feb-12 17:30N 50°58' E 001°51'815.2
2018-Feb-12 17:00N 50°58' E 001°39'918.8
2018-Feb-12 16:30N 51°03' E 001°27'611.6
2018-Feb-12 16:00N 51°07' E 001°20'0 0.0
2018-Feb-12 15:31N 51°07' E 001°20'0 0.1
2018-Feb-12 15:00N 51°07' E 001°20'917.4
2018-Feb-12 14:31N 51°03' E 001°32'918.5
2018-Feb-12 14:01N 50°58' E 001°44'4 8.2
2018-Feb-12 13:30N 50°58' E 001°51'0 0.0
2018-Feb-12 13:01N 50°58' E 001°51'2 4.0
2018-Feb-12 12:30N 50°58' E 001°48'1019.6
2018-Feb-12 12:01N 51°01' E 001°33'1019.2
2018-Feb-12 11:29N 51°07' E 001°21'0 0.7
2018-Feb-12 10:59N 51°07' E 001°20'0 0.2
2018-Feb-12 10:30N 51°07' E 001°20'  
Track history (hours):
 
Tides and Currents Weather Stations Pressure Air Temp Water Temp Dewpoint Dewpoint Depression Visibility Wind Speed Wind Dir Waves Ship Positions

Pride Of Burgundy

Operator: P & O Ferries

Last reported at 2018-Feb-22 10:30 UTC. Time now 2018-Feb-22 10:41 UTC.
Position N 51°07' E 001°20'.

Length 180 m; draft 6.2 m.

Type: Passenger vessel. MMSI: 232001470.

Date/timePositionNaut miles runAvg speedWind from/ knotsBaromVisibWave heightAir tempDewpointWater temp
2018-Feb-22 10:30N 51°07' E 001°20'2 3.3
2018-Feb-22 10:00N 51°07' E 001°23'1020.1
2018-Feb-22 09:30N 51°03' E 001°37'918.0
2018-Feb-22 09:00N 50°58' E 001°50'1 1.9
2018-Feb-22 08:30N 50°58' E 001°51'0 0.0
2018-Feb-22 08:00N 50°58' E 001°51'5 9.9
2018-Feb-22 07:30N 50°58' E 001°43'918.7
2018-Feb-22 07:00N 51°03' E 001°30'815.8
2018-Feb-22 06:30N 51°07' E 001°20'0 0.0
2018-Feb-22 06:00N 51°07' E 001°20'0 0.0
2018-Feb-22 05:30N 51°07' E 001°20'2 4.8
2018-Feb-22 05:00N 51°07' E 001°24'816.9
2018-Feb-22 04:30N 51°02' E 001°35'917.4
2018-Feb-22 04:00N 50°58' E 001°47'2 4.6
2018-Feb-22 03:30N 50°58' E 001°51'0 0.0
2018-Feb-22 03:01N 50°58' E 001°51'0 0.0
2018-Feb-22 02:30N 50°58' E 001°51'713.5
2018-Feb-22 02:00N 50°58' E 001°40'917.1
2018-Feb-22 01:30N 51°02' E 001°29'814.7
2018-Feb-22 01:00N 51°07' E 001°20'0 0.0
2018-Feb-22 00:30N 51°07' E 001°20'0 0.2
2018-Feb-22 00:00N 51°07' E 001°20'714.6
2018-Feb-21 23:31N 51°04' E 001°30'918.7
2018-Feb-21 23:01N 50°59' E 001°43'510.8
2018-Feb-21 22:30N 50°58' E 001°51'0 0.0
2018-Feb-21 22:00N 50°58' E 001°51'3 6.1
2018-Feb-21 21:30N 50°58' E 001°46'816.4
2018-Feb-21 21:00N 51°01' E 001°35'1018.9
2018-Feb-21 20:30N 51°07' E 001°22'1 2.5
2018-Feb-21 20:00N 51°07' E 001°20'0 0.0
2018-Feb-21 19:30N 51°07' E 001°20'713.6
2018-Feb-21 19:00N 51°04' E 001°30'1019.8
2018-Feb-21 18:30N 50°59' E 001°43'510.5
2018-Feb-21 17:59N 50°58' E 001°52'0 0.0
2018-Feb-21 17:30N 50°58' E 001°52'0 0.0
2018-Feb-21 17:00N 50°58' E 001°52'815.6
2018-Feb-21 16:30N 50°58' E 001°39'1019.6
2018-Feb-21 16:00N 51°04' E 001°27'5 9.7
2018-Feb-21 15:27N 51°07' E 001°20'0 0.0
2018-Feb-21 15:00N 51°07' E 001°20'3 6.1
2018-Feb-21 14:30N 51°07' E 001°25'1019.6
2018-Feb-21 14:00N 51°01' E 001°38'816.9
2018-Feb-21 13:30N 50°58' E 001°50'0 0.9
2018-Feb-21 13:00N 50°58' E 001°51'0 0.0
2018-Feb-21 12:31N 50°58' E 001°51'611.5
2018-Feb-21 12:01N 50°58' E 001°42'918.3
2018-Feb-21 11:31N 51°03' E 001°30'814.3
2018-Feb-21 10:59N 51°07' E 001°20'1632.9
2018-Feb-21 10:30N 50°60' E 001°42'1424.4
2018-Feb-21 09:55N 51°07' E 001°22'820.4
2018-Feb-21 09:30N 51°04' E 001°34'1019.7
2018-Feb-21 09:00N 50°58' E 001°47'3 5.1
2018-Feb-21 08:30N 50°58' E 001°51'0 0.0
2018-Feb-21 08:00N 50°58' E 001°51'510.3
2018-Feb-21 07:31N 50°58' E 001°43'918.7
2018-Feb-21 07:00N 51°02' E 001°29'7 3.5
2018-Feb-21 05:05N 51°07' E 001°22'1 8.5
2018-Feb-21 05:00N 51°07' E 001°23'816.4
2018-Feb-21 04:30N 51°02' E 001°34'816.1
2018-Feb-21 04:01N 50°58' E 001°45'4 7.4
2018-Feb-21 03:30N 50°58' E 001°51'0 0.0
2018-Feb-21 03:00N 50°58' E 001°51'0 0.0
2018-Feb-21 02:30N 50°58' E 001°51'611.9
2018-Feb-21 02:00N 50°59' E 001°42'1019.3
2018-Feb-21 01:30N 51°03' E 001°28'7 7.9
2018-Feb-21 00:40N 51°07' E 001°20'0 0.0
2018-Feb-21 00:30N 51°07' E 001°20'0 0.3
2018-Feb-20 23:59N 51°07' E 001°20'815.9
2018-Feb-20 23:30N 51°04' E 001°31'918.5
2018-Feb-20 23:00N 50°59' E 001°43'5 9.9
2018-Feb-20 22:30N 50°58' E 001°51'0 0.0
2018-Feb-20 22:01N 50°58' E 001°51'1 2.7
2018-Feb-20 21:30N 50°58' E 001°49'916.8
2018-Feb-20 20:57N 50°57' E 001°34'818.8
2018-Feb-20 20:30N 51°04' E 001°26'510.4
2018-Feb-20 20:00N 51°07' E 001°20'0 0.0
2018-Feb-20 19:28N 51°07' E 001°20'1 2.6
2018-Feb-20 19:00N 51°07' E 001°22'917.4
2018-Feb-20 18:31N 51°03' E 001°34'917.3
2018-Feb-20 18:01N 50°58' E 001°45'4 7.1
2018-Feb-20 17:30N 50°58' E 001°51'0 0.0
2018-Feb-20 17:00N 50°58' E 001°51'4 8.8
2018-Feb-20 16:30N 50°58' E 001°44'918.3
2018-Feb-20 16:01N 51°02' E 001°31'915.2
2018-Feb-20 15:26N 51°07' E 001°20'0 0.0
2018-Feb-20 15:00N 51°07' E 001°20'1 2.1
2018-Feb-20 14:30N 51°07' E 001°22'918.3
2018-Feb-20 14:00N 51°03' E 001°35'918.0
2018-Feb-20 13:30N 50°58' E 001°47'3 5.5
2018-Feb-20 13:00N 50°58' E 001°51'0 0.0
2018-Feb-20 12:30N 50°58' E 001°51'4 8.9
2018-Feb-20 12:01N 50°58' E 001°44'1019.8
2018-Feb-20 11:30N 51°03' E 001°30'815.2
2018-Feb-20 11:00N 51°07' E 001°20'0 0.0
2018-Feb-20 10:30N 51°07' E 001°20'1 1.9
2018-Feb-20 10:00N 51°07' E 001°22'918.7
2018-Feb-20 09:30N 51°04' E 001°36'918.6
2018-Feb-20 09:00N 50°58' E 001°47'3 5.4
2018-Feb-20 08:30N 50°58' E 001°51'0 0.0
2018-Feb-20 08:00N 50°58' E 001°51'5 9.1
2018-Feb-20 07:30N 50°58' E 001°44'919.0
2018-Feb-20 07:01N 51°03' E 001°31'815.7
2018-Feb-20 06:29N 51°07' E 001°20'0 0.0
2018-Feb-20 05:59N 51°07' E 001°20'0 0.0
2018-Feb-20 05:30N 51°07' E 001°20'510.9
2018-Feb-20 05:00N 51°05' E 001°28'816.7
2018-Feb-20 04:31N 51°01' E 001°39'714.0
2018-Feb-20 04:01N 50°58' E 001°49'1 2.7
2018-Feb-20 03:30N 50°58' E 001°51'0 0.0
2018-Feb-20 03:00N 50°58' E 001°51'0 0.0
2018-Feb-20 02:30N 50°58' E 001°51'2 4.1
2018-Feb-20 02:00N 50°58' E 001°48'1020.0
2018-Feb-20 01:31N 50°60' E 001°33'1019.7
2018-Feb-20 01:00N 51°06' E 001°20'1 2.0
2018-Feb-20 00:30N 51°07' E 001°20'0 0.3
2018-Feb-20 00:00N 51°07' E 001°20'815.5
2018-Feb-19 23:30N 51°03' E 001°31'816.2
2018-Feb-19 23:00N 50°59' E 001°42'611.9
2018-Feb-19 22:30N 50°58' E 001°51'0 0.0
2018-Feb-19 22:01N 50°58' E 001°51'1 2.8
2018-Feb-19 21:31N 50°58' E 001°49'816.9
2018-Feb-19 21:00N 50°60' E 001°36'1019.5
2018-Feb-19 20:30N 51°06' E 001°23'3 4.6
2018-Feb-19 19:58N 51°07' E 001°20'0 0.0
2018-Feb-19 19:31N 51°07' E 001°20'3 6.5
2018-Feb-19 19:00N 51°06' E 001°25'917.5
2018-Feb-19 18:30N 51°02' E 001°37'917.7
2018-Feb-19 18:00N 50°58' E 001°50'1 1.7
2018-Feb-19 17:30N 50°58' E 001°51'0 0.0
2018-Feb-19 17:00N 50°58' E 001°51'510.4
2018-Feb-19 16:30N 50°58' E 001°43'1020.0
2018-Feb-19 16:00N 51°03' E 001°29'714.0
2018-Feb-19 15:30N 51°07' E 001°20'0 0.0
2018-Feb-19 15:00N 51°07' E 001°20'2 3.8
2018-Feb-19 14:31N 51°07' E 001°23'918.6
2018-Feb-19 14:01N 51°02' E 001°35'917.3
2018-Feb-19 13:30N 50°58' E 001°48'2 3.9
2018-Feb-19 13:00N 50°58' E 001°51'0 0.0
2018-Feb-19 12:30N 50°58' E 001°51'5 9.6
2018-Feb-19 12:00N 50°58' E 001°43'1019.5
2018-Feb-19 11:30N 51°02' E 001°29'816.1
2018-Feb-19 11:00N 51°07' E 001°20'0 0.0
2018-Feb-19 10:30N 51°07' E 001°20'1 1.5
2018-Feb-19 10:01N 51°07' E 001°21'1020.0
2018-Feb-19 09:31N 51°02' E 001°35'1019.3
2018-Feb-19 09:00N 50°58' E 001°49'1 2.4
2018-Feb-19 08:30N 50°58' E 001°51'0 0.0
2018-Feb-19 08:00N 50°58' E 001°51'5 9.1
2018-Feb-19 07:30N 50°58' E 001°44'918.7
2018-Feb-19 07:01N 51°03' E 001°31'816.5
2018-Feb-19 06:30N 51°07' E 001°20'0 0.0
2018-Feb-19 06:00N 51°07' E 001°20'0 0.0
2018-Feb-19 05:28N 51°07' E 001°20'1 2.7
2018-Feb-19 05:00N 51°07' E 001°22'817.0
2018-Feb-19 04:30N 51°03' E 001°34'917.4
2018-Feb-19 04:00N 50°58' E 001°45'4 7.4
2018-Feb-19 03:30N 50°58' E 001°51'0 0.0
2018-Feb-19 03:00N 50°58' E 001°51'0 0.0
2018-Feb-19 02:30N 50°58' E 001°51'714.6
2018-Feb-19 02:00N 50°58' E 001°39'917.7
2018-Feb-19 01:30N 51°04' E 001°28'612.5
2018-Feb-19 01:00N 51°07' E 001°20'0 0.0
2018-Feb-19 00:30N 51°07' E 001°20'611.5
2018-Feb-19 00:00N 51°06' E 001°29'1020.4
2018-Feb-18 23:30N 50°60' E 001°42'612.5
2018-Feb-18 23:00N 50°58' E 001°52'0 0.0
2018-Feb-18 22:30N 50°58' E 001°52'0 0.0
2018-Feb-18 22:00N 50°58' E 001°52'2 3.3
2018-Feb-18 21:30N 50°58' E 001°49'815.1
2018-Feb-18 21:01N 50°59' E 001°37'1019.0
2018-Feb-18 20:31N 51°04' E 001°24'4 8.0
2018-Feb-18 20:00N 51°07' E 001°20'0 0.0
2018-Feb-18 19:30N 51°07' E 001°20'2 3.3
2018-Feb-18 19:00N 51°07' E 001°23'815.3
2018-Feb-18 18:30N 51°04' E 001°33'1019.2
2018-Feb-18 18:00N 50°58' E 001°46'3 6.4
2018-Feb-18 17:30N 50°58' E 001°51'0 0.0
2018-Feb-18 17:00N 50°58' E 001°51'5 9.2
2018-Feb-18 16:31N 50°58' E 001°44'1020.5
2018-Feb-18 16:00N 51°04' E 001°30'714.6
2018-Feb-18 15:30N 51°07' E 001°20'0 0.0
2018-Feb-18 14:59N 51°07' E 001°20'3 7.2
2018-Feb-18 14:31N 51°07' E 001°26'816.0
2018-Feb-18 14:01N 51°03' E 001°37'816.0
2018-Feb-18 13:31N 50°58' E 001°47'3 5.2
2018-Feb-18 13:00N 50°58' E 001°51'0 0.0
2018-Feb-18 12:30N 50°58' E 001°51'611.3
2018-Feb-18 12:00N 50°58' E 001°42'918.5
2018-Feb-18 11:30N 51°03' E 001°30'714.7
2018-Feb-18 11:00N 51°07' E 001°20'0 0.0
2018-Feb-18 10:30N 51°07' E 001°20'2 3.3
2018-Feb-18 10:00N 51°07' E 001°23'1020.6
2018-Feb-18 09:30N 51°02' E 001°37'918.8
2018-Feb-18 09:00N 50°58' E 001°51'0 0.6
2018-Feb-18 08:30N 50°58' E 001°51'0 0.1
2018-Feb-18 07:59N 50°58' E 001°51'714.4
2018-Feb-18 07:31N 50°59' E 001°40'1019.4
2018-Feb-18 07:01N 51°03' E 001°26'611.0
2018-Feb-18 06:30N 51°07' E 001°20'0 0.0
2018-Feb-18 06:00N 51°07' E 001°20'0 0.0
2018-Feb-18 05:30N 51°07' E 001°20'1 1.0
2018-Feb-18 05:00N 51°07' E 001°21'816.7
2018-Feb-18 04:30N 51°03' E 001°32'815.4
2018-Feb-18 04:00N 50°59' E 001°42'611.1
2018-Feb-18 03:30N 50°58' E 001°51'0 0.0
2018-Feb-18 03:00N 50°58' E 001°51'0 0.0
2018-Feb-18 02:30N 50°58' E 001°51'4 8.6
2018-Feb-18 02:00N 50°58' E 001°44'816.6
2018-Feb-18 01:31N 51°02' E 001°33'815.8
2018-Feb-18 01:01N 51°07' E 001°22'2 3.3
2018-Feb-18 00:30N 51°07' E 001°20'1 1.1
2018-Feb-18 00:00N 51°07' E 001°21'815.1
2018-Feb-17 23:30N 51°04' E 001°31'816.0
2018-Feb-17 23:00N 50°59' E 001°42'611.6
2018-Feb-17 22:31N 50°58' E 001°51'0 0.0
2018-Feb-17 22:00N 50°58' E 001°51'1 2.2
2018-Feb-17 21:30N 50°58' E 001°49'815.4
2018-Feb-17 21:00N 50°60' E 001°37'815.1
2018-Feb-17 20:30N 51°04' E 001°27'611.3
2018-Feb-17 20:00N 51°07' E 001°20'0 0.0
2018-Feb-17 19:29N 51°07' E 001°20'3 6.3
2018-Feb-17 19:01N 51°07' E 001°25'917.4
2018-Feb-17 18:31N 51°02' E 001°36'816.1
2018-Feb-17 18:01N 50°58' E 001°47'2 4.4
2018-Feb-17 17:30N 50°58' E 001°51'0 0.0
2018-Feb-17 17:00N 50°58' E 001°51'613.1
2018-Feb-17 16:31N 50°58' E 001°41'1020.3
2018-Feb-17 16:00N 51°04' E 001°28'611.2
2018-Feb-17 15:30N 51°07' E 001°20'0 0.0
2018-Feb-17 15:00N 51°07' E 001°20'5 9.2
2018-Feb-17 14:30N 51°06' E 001°27'1019.1
2018-Feb-17 14:01N 51°01' E 001°39'815.2
2018-Feb-17 13:30N 50°58' E 001°51'0 0.4
2018-Feb-17 13:00N 50°58' E 001°51'0 0.3
2018-Feb-17 12:30N 50°58' E 001°51'918.1
2018-Feb-17 12:01N 50°60' E 001°37'1020.0
2018-Feb-17 11:30N 51°06' E 001°24'3 5.5
2018-Feb-17 10:59N 51°07' E 001°20'0 0.2
2018-Feb-17 10:28N 51°07' E 001°20'714.5
2018-Feb-17 10:01N 51°07' E 001°31'714.7
2018-Feb-17 09:30N 51°02' E 001°38'816.5
2018-Feb-17 09:01N 50°58' E 001°50'1 1.0
2018-Feb-17 08:30N 50°58' E 001°51'0 0.0
2018-Feb-17 08:00N 50°58' E 001°51'612.4
2018-Feb-17 07:30N 50°59' E 001°41'917.5
2018-Feb-17 07:00N 51°03' E 001°29'713.6
2018-Feb-17 06:29N 51°07' E 001°20'0 0.0
2018-Feb-17 06:01N 51°07' E 001°20'0 0.0
2018-Feb-17 05:30N 51°07' E 001°20'4 8.2
2018-Feb-17 05:01N 51°06' E 001°26'816.1
2018-Feb-17 04:30N 51°01' E 001°36'815.7
2018-Feb-17 04:00N 50°58' E 001°48'2 4.2
2018-Feb-17 03:30N 50°58' E 001°51'0 0.0
2018-Feb-17 03:00N 50°58' E 001°51'0 0.0
2018-Feb-17 02:31N 50°58' E 001°51'714.6
2018-Feb-17 02:00N 50°59' E 001°40'815.5
2018-Feb-17 01:30N 51°04' E 001°30'713.7
2018-Feb-17 01:00N 51°07' E 001°20'0 0.0
2018-Feb-17 00:29N 51°07' E 001°20'0 0.2
2018-Feb-16 23:59N 51°07' E 001°20'613.5
2018-Feb-16 23:31N 51°05' E 001°30'1020.1
2018-Feb-16 23:00N 50°59' E 001°43'510.5
2018-Feb-16 22:30N 50°58' E 001°51'0 0.0
2018-Feb-16 22:01N 50°58' E 001°51'1 2.4
2018-Feb-16 21:31N 50°58' E 001°49'917.2
2018-Feb-16 21:00N 51°00' E 001°36'918.2
2018-Feb-16 20:30N 51°06' E 001°24'3 6.1
2018-Feb-16 20:00N 51°07' E 001°20'0 0.0
2018-Feb-16 19:30N 51°07' E 001°20'2 4.3
2018-Feb-16 19:01N 51°07' E 001°23'1019.5
2018-Feb-16 18:31N 51°02' E 001°36'918.7
2018-Feb-16 18:00N 50°58' E 001°50'1 1.1
2018-Feb-16 17:31N 50°58' E 001°51'0 0.0
2018-Feb-16 17:00N 50°58' E 001°51'511.0
2018-Feb-16 16:31N 50°58' E 001°42'1019.8
2018-Feb-16 16:01N 51°03' E 001°29'712.8
2018-Feb-16 15:29N 51°07' E 001°20'0 0.0
2018-Feb-16 15:00N 51°07' E 001°20'0 0.2
2018-Feb-16 14:30N 51°07' E 001°20'917.6
2018-Feb-16 14:01N 51°04' E 001°33'1019.2
2018-Feb-16 13:31N 50°58' E 001°45'4 7.2
2018-Feb-16 13:00N 50°58' E 001°51'0 0.0
2018-Feb-16 12:30N 50°58' E 001°51'510.2
2018-Feb-16 12:00N 50°58' E 001°43'1020.6
2018-Feb-16 11:30N 51°03' E 001°29'713.5
2018-Feb-16 11:00N 51°07' E 001°20'0 0.0
2018-Feb-16 10:30N 51°07' E 001°20'1 2.4
2018-Feb-16 09:59N 51°07' E 001°22'817.1
2018-Feb-16 09:31N 51°03' E 001°33'1019.5
2018-Feb-16 09:01N 50°58' E 001°46'3 5.7
2018-Feb-16 08:30N 50°58' E 001°51'0 0.0
2018-Feb-16 08:00N 50°58' E 001°51'4 8.1
2018-Feb-16 07:30N 50°58' E 001°45'918.4
2018-Feb-16 07:01N 51°02' E 001°32'917.1
2018-Feb-16 06:29N 51°07' E 001°20'0 0.0
2018-Feb-16 05:58N 51°07' E 001°20'0 0.0
2018-Feb-16 05:30N 51°07' E 001°20'4 7.3
2018-Feb-16 05:00N 51°07' E 001°26'714.3
2018-Feb-16 04:30N 51°03' E 001°35'815.5
2018-Feb-16 04:01N 50°58' E 001°45'4 7.6
2018-Feb-16 03:30N 50°58' E 001°51'0 0.0
2018-Feb-16 03:01N 50°58' E 001°51'713.8
2018-Feb-16 02:30N 50°59' E 001°40'1020.8
2018-Feb-16 02:00N 51°05' E 001°26'5 9.1
2018-Feb-16 01:30N 51°07' E 001°20'0 0.2
2018-Feb-16 00:58N 51°07' E 001°20'714.7
2018-Feb-16 00:31N 51°06' E 001°31'918.5
2018-Feb-16 00:01N 51°01' E 001°43'612.1
2018-Feb-15 23:30N 50°58' E 001°52'0 0.0
2018-Feb-15 23:00N 50°58' E 001°52'0 0.0
2018-Feb-15 22:30N 50°58' E 001°52'0 0.0
2018-Feb-15 22:00N 50°58' E 001°52'1 2.2
2018-Feb-15 21:30N 50°58' E 001°50'918.3
2018-Feb-15 21:01N 50°60' E 001°36'918.8
2018-Feb-15 20:31N 51°05' E 001°23'3 6.0
2018-Feb-15 20:00N 51°07' E 001°20'0 0.0
2018-Feb-15 19:30N 51°07' E 001°20'713.6
2018-Feb-15 19:01N 51°04' E 001°30'1019.9
2018-Feb-15 18:30N 50°59' E 001°43'611.3
2018-Feb-15 18:00N 50°58' E 001°52'0 0.0
2018-Feb-15 17:30N 50°58' E 001°52'0 0.3
2018-Feb-15 17:00N 50°58' E 001°51'815.2
2018-Feb-15 16:30N 50°58' E 001°39'1019.5
2018-Feb-15 16:00N 51°04' E 001°27'610.9
2018-Feb-15 15:30N 51°07' E 001°20'0 0.0
2018-Feb-15 14:59N 51°07' E 001°20'2 4.6
2018-Feb-15 14:30N 51°07' E 001°23'917.9
2018-Feb-15 14:00N 51°03' E 001°36'917.9
2018-Feb-15 13:30N 50°58' E 001°48'2 3.5
2018-Feb-15 13:00N 50°58' E 001°51'0 0.0
2018-Feb-15 12:30N 50°58' E 001°51'611.0
2018-Feb-15 12:01N 50°58' E 001°42'1019.8
2018-Feb-15 11:30N 51°02' E 001°28'714.5
2018-Feb-15 11:00N 51°07' E 001°20'0 0.0
2018-Feb-15 10:30N 51°07' E 001°20'3 5.7
2018-Feb-15 10:01N 51°07' E 001°24'918.9
2018-Feb-15 09:30N 51°02' E 001°38'817.0
2018-Feb-15 09:00N 50°58' E 001°50'1 1.8
2018-Feb-15 08:30N 50°58' E 001°51'0 0.1
2018-Feb-15 08:00N 50°58' E 001°51'816.4
2018-Feb-15 07:30N 50°59' E 001°38'1019.5
2018-Feb-15 07:00N 51°04' E 001°25'5 7.5
2018-Feb-15 06:24N 51°07' E 001°20'0 0.0
2018-Feb-15 06:00N 51°07' E 001°20'0 0.9
2018-Feb-15 05:30N 51°07' E 001°21'5 9.8
2018-Feb-15 05:01N 51°07' E 001°28'815.6
2018-Feb-15 04:30N 51°01' E 001°38'816.4
2018-Feb-15 04:01N 50°58' E 001°50'1 1.7
2018-Feb-15 03:30N 50°58' E 001°51'0 0.0
2018-Feb-15 03:01N 50°58' E 001°51'0 0.3
2018-Feb-15 02:30N 50°58' E 001°51'918.1
2018-Feb-15 02:01N 51°00' E 001°37'1019.1
2018-Feb-15 01:30N 51°06' E 001°24'3 6.3
2018-Feb-15 01:00N 51°07' E 001°20'0 0.0
2018-Feb-15 00:30N 51°07' E 001°20'5 9.2
2018-Feb-15 00:00N 51°07' E 001°27'917.3
2018-Feb-14 23:30N 51°02' E 001°39'816.3
2018-Feb-14 23:00N 50°58' E 001°50'1 1.1
2018-Feb-14 22:30N 50°58' E 001°51'0 0.0
2018-Feb-14 22:01N 50°58' E 001°51'612.0
2018-Feb-14 21:30N 50°58' E 001°41'918.0
2018-Feb-14 21:00N 51°02' E 001°29'815.0
2018-Feb-14 20:30N 51°07' E 001°20'0 0.0
2018-Feb-14 20:00N 51°07' E 001°20'0 0.0
2018-Feb-14 19:30N 51°07' E 001°20'612.4
2018-Feb-14 19:01N 51°05' E 001°29'1020.3
2018-Feb-14 18:30N 50°59' E 001°42'611.1
2018-Feb-14 18:01N 50°58' E 001°51'0 0.0
2018-Feb-14 17:31N 50°58' E 001°51'1 1.5
2018-Feb-14 17:01N 50°58' E 001°50'917.1
2018-Feb-14 16:30N 50°59' E 001°36'918.3
2018-Feb-14 16:00N 51°05' E 001°25'4 7.3
2018-Feb-14 15:29N 51°07' E 001°20'0 0.0
2018-Feb-14 14:59N 51°07' E 001°20'2 3.5
2018-Feb-14 14:30N 51°07' E 001°23'1019.1
2018-Feb-14 14:00N 51°02' E 001°36'918.3
2018-Feb-14 13:31N 50°58' E 001°49'1 2.6
2018-Feb-14 13:00N 50°58' E 001°51'0 0.0
2018-Feb-14 12:30N 50°58' E 001°51'612.8
2018-Feb-14 12:00N 50°59' E 001°41'1019.1
2018-Feb-14 11:30N 51°04' E 001°28'611.7
2018-Feb-14 10:59N 51°07' E 001°20'0 0.0
2018-Feb-14 10:30N 51°07' E 001°20'1 1.4
2018-Feb-14 10:00N 51°07' E 001°21'918.9
2018-Feb-14 09:30N 51°02' E 001°34'918.6
2018-Feb-14 09:00N 50°58' E 001°47'3 5.1
2018-Feb-14 08:30N 50°58' E 001°51'0 0.0
2018-Feb-14 08:00N 50°58' E 001°51'611.4
2018-Feb-14 07:30N 50°58' E 001°42'918.8
2018-Feb-14 07:00N 51°04' E 001°29'713.8
2018-Feb-14 06:30N 51°07' E 001°20'0 0.0
2018-Feb-14 06:01N 51°07' E 001°20'0 0.0
2018-Feb-14 05:30N 51°07' E 001°20'4 8.5
2018-Feb-14 05:00N 51°06' E 001°26'816.4
2018-Feb-14 04:30N 51°02' E 001°38'815.2
2018-Feb-14 04:01N 50°58' E 001°48'2 3.3
2018-Feb-14 03:30N 50°58' E 001°51'0 0.0
2018-Feb-14 03:00N 50°58' E 001°51'611.3
2018-Feb-14 02:30N 50°58' E 001°42'1019.3
2018-Feb-14 02:00N 51°03' E 001°29'713.7
2018-Feb-14 01:29N 51°07' E 001°20'0 0.0
2018-Feb-14 01:00N 51°07' E 001°20'2 4.9
2018-Feb-14 00:30N 51°07' E 001°24'1019.2
2018-Feb-14 00:00N 51°02' E 001°37'917.7
2018-Feb-13 23:31N 50°58' E 001°50'1 1.6
2018-Feb-13 23:00N 50°58' E 001°51'0 0.1
2018-Feb-13 22:30N 50°58' E 001°51'816.1
2018-Feb-13 22:01N 50°60' E 001°39'918.5
2018-Feb-13 21:30N 51°05' E 001°26'5 9.0
2018-Feb-13 21:00N 51°07' E 001°20'0 0.0
2018-Feb-13 20:30N 51°07' E 001°20'2 3.3
2018-Feb-13 20:00N 51°07' E 001°23'1019.5
2018-Feb-13 19:31N 51°02' E 001°36'918.7
2018-Feb-13 19:00N 50°58' E 001°50'1 1.9
2018-Feb-13 18:30N 50°58' E 001°51'0 0.0
2018-Feb-13 18:00N 50°58' E 001°51'510.1
2018-Feb-13 17:31N 50°58' E 001°43'917.8
2018-Feb-13 17:00N 51°02' E 001°30'816.7
2018-Feb-13 16:30N 51°07' E 001°20'0 0.4
2018-Feb-13 16:00N 51°07' E 001°20'0 0.0
2018-Feb-13 15:29N 51°07' E 001°20'510.7
2018-Feb-13 15:00N 51°06' E 001°28'1019.2
2018-Feb-13 14:30N 51°00' E 001°40'714.8
2018-Feb-13 14:00N 50°58' E 001°51'0 0.1
2018-Feb-13 13:30N 50°58' E 001°51'0 0.1
2018-Feb-13 13:00N 50°58' E 001°51'816.1
2018-Feb-13 12:30N 50°58' E 001°38'918.0
2018-Feb-13 12:00N 51°04' E 001°27'611.0
2018-Feb-13 11:30N 51°07' E 001°20'0 0.0
2018-Feb-13 11:00N 51°07' E 001°20'0 0.0
2018-Feb-13 10:30N 51°07' E 001°20'4 8.5
2018-Feb-13 10:00N 51°07' E 001°27'917.2
2018-Feb-13 09:31N 51°03' E 001°39'815.9
2018-Feb-13 09:00N 50°58' E 001°50'1 2.0
2018-Feb-13 08:30N 50°58' E 001°51'0 0.0
2018-Feb-13 08:00N 50°58' E 001°51'611.0
2018-Feb-13 07:31N 50°58' E 001°42'918.4
2018-Feb-13 07:00N 51°04' E 001°30'714.6
2018-Feb-13 06:30N 51°07' E 001°20'0 0.0
2018-Feb-13 06:00N 51°07' E 001°20'0 0.0
2018-Feb-13 05:29N 51°07' E 001°20'2 4.7
2018-Feb-13 05:00N 51°07' E 001°23'917.0
2018-Feb-13 04:30N 51°03' E 001°36'917.2
2018-Feb-13 04:00N 50°58' E 001°47'3 5.4
2018-Feb-13 03:31N 50°58' E 001°51'0 0.0
2018-Feb-13 03:00N 50°58' E 001°51'0 0.0
2018-Feb-13 02:30N 50°58' E 001°51'4 8.8
2018-Feb-13 02:00N 50°58' E 001°44'917.7
2018-Feb-13 01:30N 51°02' E 001°32'917.6
2018-Feb-13 01:00N 51°07' E 001°20'0 0.4
2018-Feb-13 00:30N 51°07' E 001°20'0 0.6
2018-Feb-13 00:00N 51°07' E 001°21'918.0
2018-Feb-12 23:30N 51°04' E 001°34'918.9
2018-Feb-12 23:00N 50°58' E 001°46'3 6.6
2018-Feb-12 22:30N 50°58' E 001°51'0 0.0
2018-Feb-12 22:00N 50°58' E 001°51'5 9.1
2018-Feb-12 21:31N 50°58' E 001°44'1020.0
2018-Feb-12 21:01N 51°03' E 001°30'815.0
2018-Feb-12 20:30N 51°07' E 001°20'0 0.0
2018-Feb-12 20:00N 51°07' E 001°20'2 3.1
2018-Feb-12 19:30N 51°07' E 001°22'919.1
2018-Feb-12 19:00N 51°02' E 001°35'918.7
2018-Feb-12 18:30N 50°58' E 001°49'1 2.6
2018-Feb-12 18:00N 50°58' E 001°51'0 0.0
2018-Feb-12 17:30N 50°58' E 001°51'815.2
2018-Feb-12 17:00N 50°58' E 001°39'918.8
2018-Feb-12 16:30N 51°03' E 001°27'611.6
2018-Feb-12 16:00N 51°07' E 001°20'0 0.0
2018-Feb-12 15:31N 51°07' E 001°20'0 0.1
2018-Feb-12 15:00N 51°07' E 001°20'917.4
2018-Feb-12 14:31N 51°03' E 001°32'918.5
2018-Feb-12 14:01N 50°58' E 001°44'4 8.2
2018-Feb-12 13:30N 50°58' E 001°51'0 0.0
2018-Feb-12 13:01N 50°58' E 001°51'2 4.0
2018-Feb-12 12:30N 50°58' E 001°48'1019.6
2018-Feb-12 12:01N 51°01' E 001°33'1019.2
2018-Feb-12 11:29N 51°07' E 001°21'0 0.7
2018-Feb-12 10:59N 51°07' E 001°20'0 0.2
2018-Feb-12 10:30N 51°07' E 001°20'  

Dump ship's entire track history